sensor_id;sensor_type;location;lat;lon;timestamp;P1;durP1;ratioP1;P2;durP2;ratioP2
55601;SDS011;59921;51.332;12.410;2023-07-24T00:01:04;2.60;;;2.00;;
55601;SDS011;59921;51.332;12.410;2023-07-24T00:03:30;3.15;;;2.15;;
55601;SDS011;59921;51.332;12.410;2023-07-24T00:05:59;2.25;;;1.80;;
55601;SDS011;59921;51.332;12.410;2023-07-24T00:08:24;2.47;;;1.77;;
55601;SDS011;59921;51.332;12.410;2023-07-24T00:10:50;3.00;;;2.22;;
55601;SDS011;59921;51.332;12.410;2023-07-24T00:13:16;3.00;;;2.20;;
55601;SDS011;59921;51.332;12.410;2023-07-24T00:15:41;2.75;;;2.05;;
55601;SDS011;59921;51.332;12.410;2023-07-24T00:18:07;2.38;;;2.00;;
55601;SDS011;59921;51.332;12.410;2023-07-24T00:20:32;2.60;;;2.00;;
55601;SDS011;59921;51.332;12.410;2023-07-24T00:22:58;2.65;;;2.20;;
55601;SDS011;59921;51.332;12.410;2023-07-24T00:25:23;3.10;;;2.22;;
55601;SDS011;59921;51.332;12.410;2023-07-24T00:27:49;2.40;;;1.90;;
55601;SDS011;59921;51.332;12.410;2023-07-24T00:30:14;2.53;;;1.92;;
55601;SDS011;59921;51.332;12.410;2023-07-24T00:32:40;2.40;;;1.77;;
55601;SDS011;59921;51.332;12.410;2023-07-24T00:35:06;2.50;;;2.00;;
55601;SDS011;59921;51.332;12.410;2023-07-24T00:37:32;2.88;;;2.10;;
55601;SDS011;59921;51.332;12.410;2023-07-24T00:39:57;2.75;;;1.92;;
55601;SDS011;59921;51.332;12.410;2023-07-24T00:45:11;2.10;;;1.65;;
55601;SDS011;59921;51.332;12.410;2023-07-24T00:50:39;2.50;;;2.08;;
55601;SDS011;59921;51.332;12.410;2023-07-24T00:53:07;2.30;;;1.90;;
55601;SDS011;59921;51.332;12.410;2023-07-24T00:55:33;2.65;;;1.95;;
55601;SDS011;59921;51.332;12.410;2023-07-24T00:57:58;2.50;;;1.98;;
55601;SDS011;59921;51.332;12.410;2023-07-24T01:00:25;2.30;;;1.90;;
55601;SDS011;59921;51.332;12.410;2023-07-24T01:02:51;2.45;;;1.98;;
55601;SDS011;59921;51.332;12.410;2023-07-24T01:05:28;2.50;;;1.65;;
55601;SDS011;59921;51.332;12.410;2023-07-24T01:07:55;2.53;;;1.83;;
55601;SDS011;59921;51.332;12.410;2023-07-24T01:10:20;2.83;;;2.10;;
55601;SDS011;59921;51.332;12.410;2023-07-24T01:13:32;2.55;;;1.92;;
55601;SDS011;59921;51.332;12.410;2023-07-24T01:16:00;2.53;;;2.00;;
55601;SDS011;59921;51.332;12.410;2023-07-24T01:18:31;2.20;;;1.80;;
55601;SDS011;59921;51.332;12.410;2023-07-24T01:20:57;2.30;;;1.88;;
55601;SDS011;59921;51.332;12.410;2023-07-24T01:26:15;2.35;;;1.70;;
55601;SDS011;59921;51.332;12.410;2023-07-24T01:28:42;2.70;;;2.08;;
55601;SDS011;59921;51.332;12.410;2023-07-24T01:31:07;1.98;;;1.77;;
55601;SDS011;59921;51.332;12.410;2023-07-24T01:33:33;2.30;;;1.88;;
55601;SDS011;59921;51.332;12.410;2023-07-24T01:36:00;2.78;;;2.00;;
55601;SDS011;59921;51.332;12.410;2023-07-24T01:38:28;2.55;;;1.90;;
55601;SDS011;59921;51.332;12.410;2023-07-24T01:40:56;2.28;;;1.85;;
55601;SDS011;59921;51.332;12.410;2023-07-24T01:43:25;2.53;;;1.80;;
55601;SDS011;59921;51.332;12.410;2023-07-24T01:45:52;2.17;;;1.75;;
55601;SDS011;59921;51.332;12.410;2023-07-24T01:48:18;2.55;;;1.92;;
55601;SDS011;59921;51.332;12.410;2023-07-24T01:50:43;2.33;;;2.03;;
55601;SDS011;59921;51.332;12.410;2023-07-24T01:53:09;2.28;;;1.80;;
55601;SDS011;59921;51.332;12.410;2023-07-24T01:55:35;2.05;;;1.85;;
55601;SDS011;59921;51.332;12.410;2023-07-24T01:58:00;2.28;;;1.80;;
55601;SDS011;59921;51.332;12.410;2023-07-24T02:00:26;2.78;;;1.98;;
55601;SDS011;59921;51.332;12.410;2023-07-24T02:02:51;2.22;;;1.65;;
55601;SDS011;59921;51.332;12.410;2023-07-24T02:05:17;1.90;;;1.63;;
55601;SDS011;59921;51.332;12.410;2023-07-24T02:07:42;2.08;;;1.73;;
55601;SDS011;59921;51.332;12.410;2023-07-24T02:10:08;2.20;;;1.80;;
55601;SDS011;59921;51.332;12.410;2023-07-24T02:12:34;2.15;;;1.80;;
55601;SDS011;59921;51.332;12.410;2023-07-24T02:15:00;2.45;;;1.83;;
55601;SDS011;59921;51.332;12.410;2023-07-24T02:17:25;2.20;;;1.67;;
55601;SDS011;59921;51.332;12.410;2023-07-24T02:19:51;2.40;;;1.95;;
55601;SDS011;59921;51.332;12.410;2023-07-24T02:22:16;2.13;;;1.70;;
55601;SDS011;59921;51.332;12.410;2023-07-24T02:24:42;2.00;;;1.67;;
55601;SDS011;59921;51.332;12.410;2023-07-24T02:27:11;1.90;;;1.50;;
55601;SDS011;59921;51.332;12.410;2023-07-24T02:29:38;2.20;;;1.63;;
55601;SDS011;59921;51.332;12.410;2023-07-24T02:32:04;2.20;;;1.80;;
55601;SDS011;59921;51.332;12.410;2023-07-24T02:34:29;2.00;;;1.65;;
55601;SDS011;59921;51.332;12.410;2023-07-24T02:39:57;2.37;;;1.93;;
55601;SDS011;59921;51.332;12.410;2023-07-24T02:42:23;1.70;;;1.40;;
55601;SDS011;59921;51.332;12.410;2023-07-24T02:44:48;1.83;;;1.65;;
55601;SDS011;59921;51.332;12.410;2023-07-24T02:47:14;2.28;;;1.67;;
55601;SDS011;59921;51.332;12.410;2023-07-24T02:49:39;1.98;;;1.52;;
55601;SDS011;59921;51.332;12.410;2023-07-24T02:52:05;1.98;;;1.63;;
55601;SDS011;59921;51.332;12.410;2023-07-24T02:54:31;2.00;;;1.60;;
55601;SDS011;59921;51.332;12.410;2023-07-24T02:56:57;2.05;;;1.77;;
55601;SDS011;59921;51.332;12.410;2023-07-24T02:59:23;2.05;;;1.60;;
55601;SDS011;59921;51.332;12.410;2023-07-24T03:01:48;1.70;;;1.60;;
55601;SDS011;59921;51.332;12.410;2023-07-24T03:04:32;2.13;;;1.70;;
55601;SDS011;59921;51.332;12.410;2023-07-24T03:06:58;2.35;;;1.63;;
55601;SDS011;59921;51.332;12.410;2023-07-24T03:09:23;2.08;;;1.70;;
55601;SDS011;59921;51.332;12.410;2023-07-24T03:11:49;2.25;;;1.60;;
55601;SDS011;59921;51.332;12.410;2023-07-24T03:14:29;1.85;;;1.58;;
55601;SDS011;59921;51.332;12.410;2023-07-24T03:17:33;2.22;;;1.60;;
55601;SDS011;59921;51.332;12.410;2023-07-24T03:19:59;2.25;;;1.60;;
55601;SDS011;59921;51.332;12.410;2023-07-24T03:22:25;2.00;;;1.50;;
55601;SDS011;59921;51.332;12.410;2023-07-24T03:24:50;2.10;;;1.58;;
55601;SDS011;59921;51.332;12.410;2023-07-24T03:27:16;1.90;;;1.60;;
55601;SDS011;59921;51.332;12.410;2023-07-24T03:29:41;2.13;;;1.50;;
55601;SDS011;59921;51.332;12.410;2023-07-24T03:32:07;2.05;;;1.60;;
55601;SDS011;59921;51.332;12.410;2023-07-24T03:34:33;1.92;;;1.60;;
55601;SDS011;59921;51.332;12.410;2023-07-24T03:36:58;2.05;;;1.70;;
55601;SDS011;59921;51.332;12.410;2023-07-24T03:39:24;1.63;;;1.40;;
55601;SDS011;59921;51.332;12.410;2023-07-24T03:41:49;1.85;;;1.50;;
55601;SDS011;59921;51.332;12.410;2023-07-24T03:44:15;1.92;;;1.60;;
55601;SDS011;59921;51.332;12.410;2023-07-24T03:46:40;2.38;;;1.75;;
55601;SDS011;59921;51.332;12.410;2023-07-24T03:49:06;1.92;;;1.50;;
55601;SDS011;59921;51.332;12.410;2023-07-24T03:51:31;1.90;;;1.40;;
55601;SDS011;59921;51.332;12.410;2023-07-24T03:53:58;2.05;;;1.67;;
55601;SDS011;59921;51.332;12.410;2023-07-24T03:56:24;2.00;;;1.60;;
55601;SDS011;59921;51.332;12.410;2023-07-24T03:58:49;1.90;;;1.60;;
55601;SDS011;59921;51.332;12.410;2023-07-24T04:01:15;2.30;;;1.90;;
55601;SDS011;59921;51.332;12.410;2023-07-24T04:03:40;1.77;;;1.52;;
55601;SDS011;59921;51.332;12.410;2023-07-24T04:06:06;2.17;;;1.67;;
55601;SDS011;59921;51.332;12.410;2023-07-24T04:08:31;1.83;;;1.42;;
55601;SDS011;59921;51.332;12.410;2023-07-24T04:10:57;1.40;;;1.30;;
55601;SDS011;59921;51.332;12.410;2023-07-24T04:13:23;1.92;;;1.60;;
55601;SDS011;59921;51.332;12.410;2023-07-24T04:15:48;2.03;;;1.58;;
55601;SDS011;59921;51.332;12.410;2023-07-24T04:18:14;1.50;;;1.40;;
55601;SDS011;59921;51.332;12.410;2023-07-24T04:20:39;2.08;;;1.70;;
55601;SDS011;59921;51.332;12.410;2023-07-24T04:23:05;1.80;;;1.42;;
55601;SDS011;59921;51.332;12.410;2023-07-24T04:25:30;2.03;;;1.50;;
55601;SDS011;59921;51.332;12.410;2023-07-24T04:27:56;1.75;;;1.40;;
55601;SDS011;59921;51.332;12.410;2023-07-24T04:30:21;1.60;;;1.30;;
55601;SDS011;59921;51.332;12.410;2023-07-24T04:32:47;1.70;;;1.40;;
55601;SDS011;59921;51.332;12.410;2023-07-24T04:35:12;1.98;;;1.70;;
55601;SDS011;59921;51.332;12.410;2023-07-24T04:37:38;1.75;;;1.55;;
55601;SDS011;59921;51.332;12.410;2023-07-24T04:40:04;1.90;;;1.58;;
55601;SDS011;59921;51.332;12.410;2023-07-24T04:42:30;1.90;;;1.60;;
55601;SDS011;59921;51.332;12.410;2023-07-24T04:44:56;1.90;;;1.45;;
55601;SDS011;59921;51.332;12.410;2023-07-24T04:47:21;2.22;;;1.50;;
55601;SDS011;59921;51.332;12.410;2023-07-24T04:49:47;1.90;;;1.50;;
55601;SDS011;59921;51.332;12.410;2023-07-24T04:52:12;1.50;;;1.35;;
55601;SDS011;59921;51.332;12.410;2023-07-24T04:54:38;1.85;;;1.58;;
55601;SDS011;59921;51.332;12.410;2023-07-24T04:57:04;2.30;;;1.52;;
55601;SDS011;59921;51.332;12.410;2023-07-24T04:59:29;1.90;;;1.50;;
55601;SDS011;59921;51.332;12.410;2023-07-24T05:01:55;2.00;;;1.48;;
55601;SDS011;59921;51.332;12.410;2023-07-24T05:04:21;1.80;;;1.50;;
55601;SDS011;59921;51.332;12.410;2023-07-24T05:06:46;1.70;;;1.50;;
55601;SDS011;59921;51.332;12.410;2023-07-24T05:09:11;2.03;;;1.60;;
55601;SDS011;59921;51.332;12.410;2023-07-24T05:11:37;2.33;;;1.60;;
55601;SDS011;59921;51.332;12.410;2023-07-24T05:14:02;1.60;;;1.50;;
55601;SDS011;59921;51.332;12.410;2023-07-24T05:16:28;2.42;;;1.70;;
55601;SDS011;59921;51.332;12.410;2023-07-24T05:18:54;1.65;;;1.40;;
55601;SDS011;59921;51.332;12.410;2023-07-24T05:21:19;1.45;;;1.20;;
55601;SDS011;59921;51.332;12.410;2023-07-24T05:23:45;2.17;;;1.60;;
55601;SDS011;59921;51.332;12.410;2023-07-24T05:26:11;2.17;;;1.65;;
55601;SDS011;59921;51.332;12.410;2023-07-24T05:28:36;1.77;;;1.30;;
55601;SDS011;59921;51.332;12.410;2023-07-24T05:31:02;2.13;;;1.33;;
55601;SDS011;59921;51.332;12.410;2023-07-24T05:33:29;2.08;;;1.60;;
55601;SDS011;59921;51.332;12.410;2023-07-24T05:35:58;2.28;;;1.70;;
55601;SDS011;59921;51.332;12.410;2023-07-24T05:38:27;1.92;;;1.48;;
55601;SDS011;59921;51.332;12.410;2023-07-24T05:40:57;1.75;;;1.42;;
55601;SDS011;59921;51.332;12.410;2023-07-24T05:43:27;1.52;;;1.40;;
55601;SDS011;59921;51.332;12.410;2023-07-24T05:45:53;2.13;;;1.60;;
55601;SDS011;59921;51.332;12.410;2023-07-24T05:48:24;2.00;;;1.50;;
55601;SDS011;59921;51.332;12.410;2023-07-24T05:50:50;1.55;;;1.20;;
55601;SDS011;59921;51.332;12.410;2023-07-24T05:53:16;1.50;;;1.23;;
55601;SDS011;59921;51.332;12.410;2023-07-24T05:55:42;2.05;;;1.60;;
55601;SDS011;59921;51.332;12.410;2023-07-24T05:58:08;1.40;;;1.30;;
55601;SDS011;59921;51.332;12.410;2023-07-24T06:00:35;1.60;;;1.35;;
55601;SDS011;59921;51.332;12.410;2023-07-24T06:03:01;1.23;;;1.13;;
55601;SDS011;59921;51.332;12.410;2023-07-24T06:05:28;1.67;;;1.20;;
55601;SDS011;59921;51.332;12.410;2023-07-24T06:07:53;1.60;;;1.33;;
55601;SDS011;59921;51.332;12.410;2023-07-24T06:10:19;1.80;;;1.50;;
55601;SDS011;59921;51.332;12.410;2023-07-24T06:12:45;1.52;;;1.30;;
55601;SDS011;59921;51.332;12.410;2023-07-24T06:15:10;1.52;;;1.35;;
55601;SDS011;59921;51.332;12.410;2023-07-24T06:17:36;1.58;;;1.38;;
55601;SDS011;59921;51.332;12.410;2023-07-24T06:20:01;1.25;;;1.15;;
55601;SDS011;59921;51.332;12.410;2023-07-24T06:22:27;1.70;;;1.25;;
55601;SDS011;59921;51.332;12.410;2023-07-24T06:24:52;2.13;;;1.52;;
55601;SDS011;59921;51.332;12.410;2023-07-24T06:27:18;2.17;;;1.42;;
55601;SDS011;59921;51.332;12.410;2023-07-24T06:29:43;1.77;;;1.50;;
55601;SDS011;59921;51.332;12.410;2023-07-24T06:32:09;2.60;;;1.67;;
55601;SDS011;59921;51.332;12.410;2023-07-24T06:34:35;1.58;;;1.40;;
55601;SDS011;59921;51.332;12.410;2023-07-24T06:37:00;1.55;;;1.35;;
55601;SDS011;59921;51.332;12.410;2023-07-24T06:39:26;1.42;;;1.30;;
55601;SDS011;59921;51.332;12.410;2023-07-24T06:41:53;1.90;;;1.58;;
55601;SDS011;59921;51.332;12.410;2023-07-24T06:44:20;1.85;;;1.50;;
55601;SDS011;59921;51.332;12.410;2023-07-24T06:46:46;1.90;;;1.25;;
55601;SDS011;59921;51.332;12.410;2023-07-24T06:49:12;1.85;;;1.25;;
55601;SDS011;59921;51.332;12.410;2023-07-24T06:51:37;1.80;;;1.48;;
55601;SDS011;59921;51.332;12.410;2023-07-24T06:54:04;1.83;;;1.40;;
55601;SDS011;59921;51.332;12.410;2023-07-24T06:56:30;1.20;;;1.10;;
55601;SDS011;59921;51.332;12.410;2023-07-24T06:58:56;2.50;;;1.55;;
55601;SDS011;59921;51.332;12.410;2023-07-24T07:01:22;1.73;;;1.30;;
55601;SDS011;59921;51.332;12.410;2023-07-24T07:03:47;1.88;;;1.55;;
55601;SDS011;59921;51.332;12.410;2023-07-24T07:06:13;2.28;;;1.50;;
55601;SDS011;59921;51.332;12.410;2023-07-24T07:08:39;1.38;;;1.20;;
55601;SDS011;59921;51.332;12.410;2023-07-24T07:11:05;1.50;;;1.33;;
55601;SDS011;59921;51.332;12.410;2023-07-24T07:13:30;1.50;;;1.38;;
55601;SDS011;59921;51.332;12.410;2023-07-24T07:16:02;2.00;;;1.40;;
55601;SDS011;59921;51.332;12.410;2023-07-24T07:18:28;1.30;;;1.10;;
55601;SDS011;59921;51.332;12.410;2023-07-24T07:20:54;1.30;;;1.13;;
55601;SDS011;59921;51.332;12.410;2023-07-24T07:23:29;2.05;;;1.40;;
55601;SDS011;59921;51.332;12.410;2023-07-24T07:25:55;2.00;;;1.35;;
55601;SDS011;59921;51.332;12.410;2023-07-24T07:28:20;1.55;;;1.33;;
55601;SDS011;59921;51.332;12.410;2023-07-24T07:30:46;1.55;;;1.45;;
55601;SDS011;59921;51.332;12.410;2023-07-24T07:33:12;1.70;;;1.40;;
55601;SDS011;59921;51.332;12.410;2023-07-24T07:35:37;1.30;;;1.10;;
55601;SDS011;59921;51.332;12.410;2023-07-24T07:38:03;1.80;;;1.30;;
55601;SDS011;59921;51.332;12.410;2023-07-24T07:40:29;1.67;;;1.23;;
55601;SDS011;59921;51.332;12.410;2023-07-24T07:42:55;2.13;;;1.60;;
55601;SDS011;59921;51.332;12.410;2023-07-24T07:45:21;1.58;;;1.33;;
55601;SDS011;59921;51.332;12.410;2023-07-24T07:47:50;1.92;;;1.48;;
55601;SDS011;59921;51.332;12.410;2023-07-24T07:50:18;1.50;;;1.30;;
55601;SDS011;59921;51.332;12.410;2023-07-24T07:52:43;1.80;;;1.45;;
55601;SDS011;59921;51.332;12.410;2023-07-24T07:55:09;1.55;;;1.23;;
55601;SDS011;59921;51.332;12.410;2023-07-24T07:57:36;1.63;;;1.38;;
55601;SDS011;59921;51.332;12.410;2023-07-24T08:00:02;1.60;;;1.20;;
55601;SDS011;59921;51.332;12.410;2023-07-24T08:02:29;1.42;;;1.30;;
55601;SDS011;59921;51.332;12.410;2023-07-24T08:04:57;1.33;;;1.15;;
55601;SDS011;59921;51.332;12.410;2023-07-24T08:07:23;2.05;;;1.30;;
55601;SDS011;59921;51.332;12.410;2023-07-24T08:09:48;1.67;;;1.10;;
55601;SDS011;59921;51.332;12.410;2023-07-24T08:12:14;1.45;;;1.20;;
55601;SDS011;59921;51.332;12.410;2023-07-24T08:14:39;1.20;;;1.10;;
55601;SDS011;59921;51.332;12.410;2023-07-24T08:17:05;1.80;;;1.30;;
55601;SDS011;59921;51.332;12.410;2023-07-24T08:19:30;1.75;;;1.30;;
55601;SDS011;59921;51.332;12.410;2023-07-24T08:21:56;1.50;;;1.20;;
55601;SDS011;59921;51.332;12.410;2023-07-24T08:24:22;1.40;;;1.13;;
55601;SDS011;59921;51.332;12.410;2023-07-24T08:26:48;1.52;;;1.38;;
55601;SDS011;59921;51.332;12.410;2023-07-24T08:29:13;1.17;;;1.00;;
55601;SDS011;59921;51.332;12.410;2023-07-24T08:31:39;1.52;;;1.23;;
55601;SDS011;59921;51.332;12.410;2023-07-24T08:34:05;1.63;;;1.40;;
55601;SDS011;59921;51.332;12.410;2023-07-24T08:36:30;1.65;;;1.30;;
55601;SDS011;59921;51.332;12.410;2023-07-24T08:38:56;1.50;;;1.30;;
55601;SDS011;59921;51.332;12.410;2023-07-24T08:41:22;1.33;;;1.20;;
55601;SDS011;59921;51.332;12.410;2023-07-24T08:43:47;1.58;;;1.30;;
55601;SDS011;59921;51.332;12.410;2023-07-24T08:46:14;1.15;;;1.05;;
55601;SDS011;59921;51.332;12.410;2023-07-24T08:48:42;1.27;;;1.10;;
55601;SDS011;59921;51.332;12.410;2023-07-24T08:51:08;1.52;;;1.20;;
55601;SDS011;59921;51.332;12.410;2023-07-24T08:53:36;1.33;;;1.17;;
55601;SDS011;59921;51.332;12.410;2023-07-24T08:56:04;1.40;;;1.30;;
55601;SDS011;59921;51.332;12.410;2023-07-24T08:58:30;1.45;;;1.10;;
55601;SDS011;59921;51.332;12.410;2023-07-24T09:00:56;1.67;;;1.27;;
55601;SDS011;59921;51.332;12.410;2023-07-24T09:03:23;1.35;;;1.17;;
55601;SDS011;59921;51.332;12.410;2023-07-24T09:05:49;1.40;;;1.23;;
55601;SDS011;59921;51.332;12.410;2023-07-24T09:08:15;1.30;;;1.00;;
55601;SDS011;59921;51.332;12.410;2023-07-24T09:10:40;1.50;;;1.25;;
55601;SDS011;59921;51.332;12.410;2023-07-24T09:13:06;1.35;;;1.23;;
55601;SDS011;59921;51.332;12.410;2023-07-24T09:15:44;1.45;;;1.15;;
55601;SDS011;59921;51.332;12.410;2023-07-24T09:18:10;2.03;;;1.23;;
55601;SDS011;59921;51.332;12.410;2023-07-24T09:20:40;1.98;;;1.48;;
55601;SDS011;59921;51.332;12.410;2023-07-24T09:23:07;1.30;;;1.15;;
55601;SDS011;59921;51.332;12.410;2023-07-24T09:25:37;1.60;;;1.17;;
55601;SDS011;59921;51.332;12.410;2023-07-24T09:30:36;1.20;;;1.10;;
55601;SDS011;59921;51.332;12.410;2023-07-24T09:33:03;1.40;;;1.23;;
55601;SDS011;59921;51.332;12.410;2023-07-24T09:35:28;1.10;;;1.00;;
55601;SDS011;59921;51.332;12.410;2023-07-24T09:38:04;1.50;;;1.20;;
55601;SDS011;59921;51.332;12.410;2023-07-24T09:40:38;1.20;;;1.10;;
55601;SDS011;59921;51.332;12.410;2023-07-24T09:43:15;1.30;;;1.20;;
55601;SDS011;59921;51.332;12.410;2023-07-24T09:45:44;1.45;;;1.20;;
55601;SDS011;59921;51.332;12.410;2023-07-24T09:48:12;1.50;;;1.20;;
55601;SDS011;59921;51.332;12.410;2023-07-24T09:50:40;1.40;;;1.20;;
55601;SDS011;59921;51.332;12.410;2023-07-24T09:53:10;1.48;;;1.25;;
55601;SDS011;59921;51.332;12.410;2023-07-24T09:55:58;1.23;;;1.10;;
55601;SDS011;59921;51.332;12.410;2023-07-24T09:58:28;1.20;;;1.05;;
55601;SDS011;59921;51.332;12.410;2023-07-24T10:00:54;1.20;;;0.98;;
55601;SDS011;59921;51.332;12.410;2023-07-24T10:03:23;1.30;;;0.98;;
55601;SDS011;59921;51.332;12.410;2023-07-24T10:05:49;1.50;;;1.27;;
55601;SDS011;59921;51.332;12.410;2023-07-24T10:08:16;1.20;;;1.00;;
55601;SDS011;59921;51.332;12.410;2023-07-24T10:10:43;1.20;;;1.10;;
55601;SDS011;59921;51.332;12.410;2023-07-24T10:13:09;1.30;;;1.20;;
55601;SDS011;59921;51.332;12.410;2023-07-24T10:15:36;1.42;;;1.20;;
55601;SDS011;59921;51.332;12.410;2023-07-24T10:18:03;1.10;;;0.90;;
55601;SDS011;59921;51.332;12.410;2023-07-24T10:20:34;1.17;;;1.08;;
55601;SDS011;59921;51.332;12.410;2023-07-24T10:23:01;1.35;;;1.25;;
55601;SDS011;59921;51.332;12.410;2023-07-24T10:25:31;1.33;;;1.10;;
55601;SDS011;59921;51.332;12.410;2023-07-24T10:28:01;1.60;;;1.20;;
55601;SDS011;59921;51.332;12.410;2023-07-24T10:30:30;1.20;;;1.10;;
55601;SDS011;59921;51.332;12.410;2023-07-24T10:35:47;1.55;;;1.10;;
55601;SDS011;59921;51.332;12.410;2023-07-24T10:38:15;1.60;;;1.10;;
55601;SDS011;59921;51.332;12.410;2023-07-24T10:40:41;2.45;;;1.20;;
55601;SDS011;59921;51.332;12.410;2023-07-24T10:43:11;1.08;;;0.90;;
55601;SDS011;59921;51.332;12.410;2023-07-24T10:45:42;1.10;;;1.00;;
55601;SDS011;59921;51.332;12.410;2023-07-24T10:48:13;1.20;;;1.10;;
55601;SDS011;59921;51.332;12.410;2023-07-24T10:50:39;1.30;;;1.02;;
55601;SDS011;59921;51.332;12.410;2023-07-24T10:53:07;1.30;;;1.00;;
55601;SDS011;59921;51.332;12.410;2023-07-24T10:55:33;1.20;;;1.10;;
55601;SDS011;59921;51.332;12.410;2023-07-24T10:57:59;1.13;;;1.02;;
55601;SDS011;59921;51.332;12.410;2023-07-24T11:00:25;1.35;;;1.08;;
55601;SDS011;59921;51.332;12.410;2023-07-24T11:02:52;1.02;;;0.80;;
55601;SDS011;59921;51.332;12.410;2023-07-24T11:05:21;1.15;;;1.05;;
55601;SDS011;59921;51.332;12.410;2023-07-24T11:07:48;1.35;;;1.20;;
55601;SDS011;59921;51.332;12.410;2023-07-24T11:10:17;1.30;;;1.20;;
55601;SDS011;59921;51.332;12.410;2023-07-24T11:12:46;1.10;;;1.00;;
55601;SDS011;59921;51.332;12.410;2023-07-24T11:15:12;1.05;;;0.95;;
55601;SDS011;59921;51.332;12.410;2023-07-24T11:17:39;1.10;;;1.00;;
55601;SDS011;59921;51.332;12.410;2023-07-24T11:20:06;1.10;;;1.00;;
55601;SDS011;59921;51.332;12.410;2023-07-24T11:22:32;1.20;;;1.10;;
55601;SDS011;59921;51.332;12.410;2023-07-24T11:24:58;1.20;;;1.00;;
55601;SDS011;59921;51.332;12.410;2023-07-24T11:27:24;1.20;;;1.08;;
55601;SDS011;59921;51.332;12.410;2023-07-24T11:29:50;1.17;;;1.00;;
55601;SDS011;59921;51.332;12.410;2023-07-24T11:32:19;0.75;;;0.75;;
55601;SDS011;59921;51.332;12.410;2023-07-24T11:34:48;1.27;;;1.10;;
55601;SDS011;59921;51.332;12.410;2023-07-24T11:37:15;1.30;;;1.10;;
55601;SDS011;59921;51.332;12.410;2023-07-24T11:39:42;1.20;;;1.10;;
55601;SDS011;59921;51.332;12.410;2023-07-24T11:42:07;1.30;;;1.10;;
55601;SDS011;59921;51.332;12.410;2023-07-24T11:44:33;1.55;;;1.20;;
55601;SDS011;59921;51.332;12.410;2023-07-24T11:47:02;1.13;;;0.90;;
55601;SDS011;59921;51.332;12.410;2023-07-24T11:49:31;1.27;;;1.00;;
55601;SDS011;59921;51.332;12.410;2023-07-24T11:52:04;1.23;;;0.98;;
55601;SDS011;59921;51.332;12.410;2023-07-24T11:54:33;1.10;;;1.00;;
55601;SDS011;59921;51.332;12.410;2023-07-24T11:57:01;1.10;;;1.00;;
55601;SDS011;59921;51.332;12.410;2023-07-24T11:59:27;1.33;;;1.02;;
55601;SDS011;59921;51.332;12.410;2023-07-24T12:01:52;1.60;;;1.15;;
55601;SDS011;59921;51.332;12.410;2023-07-24T12:04:18;1.20;;;1.10;;
55601;SDS011;59921;51.332;12.410;2023-07-24T12:06:45;1.15;;;1.00;;
55601;SDS011;59921;51.332;12.410;2023-07-24T12:09:11;1.30;;;1.20;;
55601;SDS011;59921;51.332;12.410;2023-07-24T12:11:40;1.30;;;1.10;;
55601;SDS011;59921;51.332;12.410;2023-07-24T12:14:07;1.40;;;1.20;;
55601;SDS011;59921;51.332;12.410;2023-07-24T12:16:36;1.42;;;1.15;;
55601;SDS011;59921;51.332;12.410;2023-07-24T12:19:02;1.13;;;1.02;;
55601;SDS011;59921;51.332;12.410;2023-07-24T12:21:27;1.23;;;1.00;;
55601;SDS011;59921;51.332;12.410;2023-07-24T12:23:53;1.13;;;1.00;;
55601;SDS011;59921;51.332;12.410;2023-07-24T12:26:19;1.10;;;1.00;;
55601;SDS011;59921;51.332;12.410;2023-07-24T12:28:44;1.27;;;1.10;;
55601;SDS011;59921;51.332;12.410;2023-07-24T12:31:21;1.23;;;0.90;;
55601;SDS011;59921;51.332;12.410;2023-07-24T12:33:46;1.10;;;1.00;;
55601;SDS011;59921;51.332;12.410;2023-07-24T12:36:12;1.17;;;1.05;;
55601;SDS011;59921;51.332;12.410;2023-07-24T12:38:37;1.27;;;1.15;;
55601;SDS011;59921;51.332;12.410;2023-07-24T12:41:02;1.00;;;0.90;;
55601;SDS011;59921;51.332;12.410;2023-07-24T12:43:28;1.13;;;1.02;;
55601;SDS011;59921;51.332;12.410;2023-07-24T12:45:53;1.20;;;1.10;;
55601;SDS011;59921;51.332;12.410;2023-07-24T12:48:19;1.70;;;1.40;;
55601;SDS011;59921;51.332;12.410;2023-07-24T12:50:44;1.20;;;1.10;;
55601;SDS011;59921;51.332;12.410;2023-07-24T12:53:10;1.20;;;1.10;;
55601;SDS011;59921;51.332;12.410;2023-07-24T12:55:35;1.05;;;0.95;;
55601;SDS011;59921;51.332;12.410;2023-07-24T12:58:01;1.00;;;0.90;;
55601;SDS011;59921;51.332;12.410;2023-07-24T13:00:28;1.10;;;1.00;;
55601;SDS011;59921;51.332;12.410;2023-07-24T13:02:54;1.40;;;1.10;;
55601;SDS011;59921;51.332;12.410;2023-07-24T13:05:20;1.20;;;1.10;;
55601;SDS011;59921;51.332;12.410;2023-07-24T13:07:45;1.17;;;0.90;;
55601;SDS011;59921;51.332;12.410;2023-07-24T13:10:11;1.80;;;1.38;;
55601;SDS011;59921;51.332;12.410;2023-07-24T13:12:36;1.00;;;0.90;;
55601;SDS011;59921;51.332;12.410;2023-07-24T13:15:02;1.60;;;1.10;;
55601;SDS011;59921;51.332;12.410;2023-07-24T13:17:28;1.00;;;0.90;;
55601;SDS011;59921;51.332;12.410;2023-07-24T13:19:54;1.30;;;1.10;;
55601;SDS011;59921;51.332;12.410;2023-07-24T13:22:20;1.40;;;1.25;;
55601;SDS011;59921;51.332;12.410;2023-07-24T13:24:46;1.30;;;1.10;;
55601;SDS011;59921;51.332;12.410;2023-07-24T13:27:11;1.20;;;1.00;;
55601;SDS011;59921;51.332;12.410;2023-07-24T13:29:37;1.95;;;0.95;;
55601;SDS011;59921;51.332;12.410;2023-07-24T13:32:02;1.20;;;1.00;;
55601;SDS011;59921;51.332;12.410;2023-07-24T13:34:28;2.25;;;1.20;;
55601;SDS011;59921;51.332;12.410;2023-07-24T13:36:54;1.25;;;0.95;;
55601;SDS011;59921;51.332;12.410;2023-07-24T13:39:19;1.10;;;1.00;;
55601;SDS011;59921;51.332;12.410;2023-07-24T13:41:45;1.15;;;1.00;;
55601;SDS011;59921;51.332;12.410;2023-07-24T13:44:11;1.10;;;0.90;;
55601;SDS011;59921;51.332;12.410;2023-07-24T13:46:36;1.15;;;1.05;;
55601;SDS011;59921;51.332;12.410;2023-07-24T13:49:02;1.25;;;1.15;;
55601;SDS011;59921;51.332;12.410;2023-07-24T13:51:28;1.00;;;0.90;;
55601;SDS011;59921;51.332;12.410;2023-07-24T13:53:54;1.40;;;1.20;;
55601;SDS011;59921;51.332;12.410;2023-07-24T13:56:19;1.23;;;1.00;;
55601;SDS011;59921;51.332;12.410;2023-07-24T13:58:47;1.30;;;1.20;;
55601;SDS011;59921;51.332;12.410;2023-07-24T14:01:13;1.08;;;0.98;;
55601;SDS011;59921;51.332;12.410;2023-07-24T14:03:38;1.13;;;1.00;;
55601;SDS011;59921;51.332;12.410;2023-07-24T14:06:03;1.10;;;1.00;;
55601;SDS011;59921;51.332;12.410;2023-07-24T14:08:29;1.30;;;1.20;;
55601;SDS011;59921;51.332;12.410;2023-07-24T14:10:55;1.40;;;1.08;;
55601;SDS011;59921;51.332;12.410;2023-07-24T14:13:20;1.30;;;1.08;;
55601;SDS011;59921;51.332;12.410;2023-07-24T14:15:46;1.20;;;1.10;;
55601;SDS011;59921;51.332;12.410;2023-07-24T14:18:11;1.20;;;1.08;;
55601;SDS011;59921;51.332;12.410;2023-07-24T14:20:37;1.20;;;1.00;;
55601;SDS011;59921;51.332;12.410;2023-07-24T14:23:04;1.38;;;1.00;;
55601;SDS011;59921;51.332;12.410;2023-07-24T14:25:30;1.70;;;1.20;;
55601;SDS011;59921;51.332;12.410;2023-07-24T14:27:55;1.10;;;1.00;;
55601;SDS011;59921;51.332;12.410;2023-07-24T14:30:21;1.20;;;1.08;;
55601;SDS011;59921;51.332;12.410;2023-07-24T14:32:46;1.13;;;0.90;;
55601;SDS011;59921;51.332;12.410;2023-07-24T14:35:12;1.20;;;1.10;;
55601;SDS011;59921;51.332;12.410;2023-07-24T14:37:37;1.33;;;1.10;;
55601;SDS011;59921;51.332;12.410;2023-07-24T14:40:03;1.38;;;1.10;;
55601;SDS011;59921;51.332;12.410;2023-07-24T14:42:28;1.48;;;1.10;;
55601;SDS011;59921;51.332;12.410;2023-07-24T14:44:54;1.13;;;1.00;;
55601;SDS011;59921;51.332;12.410;2023-07-24T14:47:19;1.55;;;1.25;;